createdAt,value
2022-12-25T00:00:02.421Z,3.61
2022-12-25T00:01:02.445Z,2.78
2022-12-25T00:02:02.345Z,2.66
2022-12-25T00:03:02.493Z,2.71
2022-12-25T00:04:02.370Z,2.66
2022-12-25T00:05:02.260Z,3.03
2022-12-25T00:06:02.233Z,2.61
2022-12-25T00:07:02.210Z,2.91
2022-12-25T00:08:02.204Z,3.41
2022-12-25T00:09:02.160Z,2.99
2022-12-25T00:10:02.187Z,2.90
2022-12-25T00:11:02.095Z,3.19
2022-12-25T00:12:02.072Z,2.37
2022-12-25T00:13:02.055Z,3.12
2022-12-25T00:14:02.048Z,2.67
2022-12-25T00:15:02.088Z,2.95
2022-12-25T00:16:02.032Z,3.25
2022-12-25T00:17:01.948Z,2.57
2022-12-25T00:18:01.943Z,2.77
2022-12-25T00:19:01.892Z,2.79
2022-12-25T00:20:01.911Z,2.42
2022-12-25T00:21:01.849Z,2.70
2022-12-25T00:22:01.831Z,3.48
2022-12-25T00:23:01.810Z,3.05
2022-12-25T00:24:01.766Z,2.55
2022-12-25T00:25:01.743Z,2.61
2022-12-25T00:26:01.710Z,2.81
2022-12-25T00:27:01.719Z,3.08
2022-12-25T00:28:01.679Z,2.82
2022-12-25T00:29:01.650Z,2.19
2022-12-25T00:30:01.681Z,2.58
2022-12-25T00:31:01.647Z,3.30
2022-12-25T00:32:01.608Z,3.10
2022-12-25T00:33:01.570Z,2.99
2022-12-25T00:34:01.555Z,2.90
2022-12-25T00:35:01.532Z,2.69
2022-12-25T00:36:01.524Z,3.33
2022-12-25T00:37:01.493Z,2.63
2022-12-25T00:38:01.480Z,2.53
2022-12-25T00:39:01.455Z,2.80
2022-12-25T00:40:01.450Z,3.10
2022-12-25T00:41:01.445Z,3.23
2022-12-25T00:42:01.413Z,3.48
2022-12-25T00:43:01.361Z,2.77
2022-12-25T00:44:01.337Z,3.40
2022-12-25T00:45:01.329Z,3.10
2022-12-25T00:46:01.420Z,2.49
2022-12-25T00:47:01.338Z,3.26
2022-12-25T00:48:01.231Z,2.58
2022-12-25T00:49:01.191Z,3.11
2022-12-25T00:50:01.184Z,2.90
2022-12-25T00:51:01.147Z,3.15
2022-12-25T00:52:01.117Z,3.07
2022-12-25T00:53:01.102Z,2.96
2022-12-25T00:54:01.080Z,3.06
2022-12-25T00:55:01.036Z,2.65
2022-12-25T00:56:01.013Z,2.66
2022-12-25T00:57:00.996Z,3.05
2022-12-25T00:58:00.974Z,2.71
2022-12-25T00:59:00.936Z,2.88
2022-12-25T01:00:00.909Z,2.53
2022-12-25T01:01:00.963Z,2.32
2022-12-25T01:02:00.912Z,2.59
2022-12-25T01:03:00.988Z,2.96
2022-12-25T01:04:00.818Z,2.65
2022-12-25T01:05:00.805Z,3.19
2022-12-25T01:06:00.778Z,3.39
2022-12-25T01:07:00.758Z,2.55
2022-12-25T01:08:00.773Z,2.80
2022-12-25T01:09:00.682Z,3.01
2022-12-25T01:10:00.650Z,2.78
2022-12-25T01:11:00.654Z,3.20
2022-12-25T01:12:00.593Z,2.96
2022-12-25T01:13:00.581Z,3.30
2022-12-25T01:14:00.532Z,2.84
2022-12-25T01:15:00.519Z,2.52
2022-12-25T01:16:00.523Z,2.79
2022-12-25T01:17:00.453Z,2.48
2022-12-25T01:18:04.075Z,3.20
2022-12-25T01:20:00.378Z,3.06
2022-12-25T01:21:00.373Z,2.56
2022-12-25T01:22:00.327Z,2.63
2022-12-25T01:23:00.333Z,2.50
2022-12-25T01:24:00.258Z,2.91
2022-12-25T01:25:00.212Z,2.49
2022-12-25T01:26:00.210Z,3.04
2022-12-25T01:27:00.180Z,2.91
2022-12-25T01:28:00.149Z,2.90
2022-12-25T01:29:00.123Z,3.51
2022-12-25T01:47:00.545Z,2.73
2022-12-25T02:11:00.157Z,2.76
2022-12-25T02:12:00.397Z,3.01
2022-12-25T02:13:00.191Z,2.49
2022-12-25T02:14:00.214Z,2.96
2022-12-25T02:15:05.473Z,3.21
2022-12-25T02:16:01.343Z,2.79
2022-12-25T02:17:00.276Z,2.35
2022-12-25T02:18:00.218Z,2.73
2022-12-25T02:19:00.146Z,2.98
2022-12-25T02:20:00.162Z,2.28
2022-12-25T02:21:00.137Z,2.99
2022-12-25T02:25:00.573Z,2.86
2022-12-25T07:42:52.687Z,1.48
2022-12-25T07:43:52.652Z,1.50
2022-12-25T07:44:52.624Z,1.31
2022-12-25T07:46:52.572Z,1.38
2022-12-25T07:47:55.175Z,1.40
2022-12-25T07:48:52.529Z,1.49
2022-12-25T07:49:52.566Z,1.18
2022-12-25T07:50:52.489Z,1.12
2022-12-25T07:51:52.466Z,1.23
2022-12-25T07:52:52.436Z,1.81
2022-12-25T07:53:52.411Z,1.23
2022-12-25T07:54:52.395Z,1.40
2022-12-25T07:55:52.371Z,1.25
2022-12-25T07:56:52.346Z,1.76
2022-12-25T07:57:52.343Z,0.98
2022-12-25T07:58:52.312Z,1.34
2022-12-25T07:59:52.275Z,1.77
2022-12-25T08:00:52.358Z,1.18
2022-12-25T08:01:52.449Z,1.58
2022-12-25T08:02:52.387Z,1.19
2022-12-25T08:03:52.398Z,1.44
2022-12-25T08:04:52.163Z,1.56
2022-12-25T08:05:52.149Z,1.48
2022-12-25T08:06:52.154Z,1.42
2022-12-25T08:07:57.096Z,1.37
2022-12-25T08:08:53.077Z,1.94
2022-12-25T08:09:52.054Z,1.48
2022-12-25T08:10:52.021Z,1.25
2022-12-25T08:11:52.030Z,1.49
2022-12-25T08:12:52.008Z,1.45
2022-12-25T08:13:51.982Z,1.39
2022-12-25T08:14:51.946Z,1.47
2022-12-25T08:15:51.930Z,1.97
2022-12-25T08:16:52.006Z,1.96
2022-12-25T08:17:51.873Z,1.86
2022-12-25T08:18:51.878Z,2.18
2022-12-25T08:19:51.841Z,1.54
2022-12-25T08:20:51.810Z,1.72
2022-12-25T08:21:51.795Z,1.77
2022-12-25T08:22:51.766Z,1.36
2022-12-25T08:23:51.734Z,1.82
2022-12-25T08:24:51.731Z,1.69
2022-12-25T08:25:51.679Z,1.47
2022-12-25T08:26:51.714Z,1.50
2022-12-25T08:27:51.677Z,1.75
2022-12-25T08:28:51.609Z,1.37
2022-12-25T08:29:51.602Z,1.39
2022-12-25T08:30:51.627Z,1.59
2022-12-25T08:31:51.565Z,1.75
2022-12-25T08:32:51.511Z,1.88
2022-12-25T08:33:51.493Z,1.53
2022-12-25T08:34:51.479Z,2.00
2022-12-25T08:35:51.446Z,1.60
2022-12-25T08:36:51.462Z,1.70
2022-12-25T08:37:51.388Z,1.58
2022-12-25T08:38:53.469Z,1.33
2022-12-25T08:39:51.351Z,1.54
2022-12-25T08:40:51.328Z,1.90
2022-12-25T08:41:51.293Z,1.73
2022-12-25T08:42:51.255Z,1.50
2022-12-25T08:43:51.243Z,1.65
2022-12-25T08:44:51.225Z,1.53
2022-12-25T08:45:51.223Z,2.32
2022-12-25T08:46:51.155Z,1.70
2022-12-25T08:47:51.130Z,1.69
2022-12-25T08:48:51.092Z,1.81
2022-12-25T08:49:51.089Z,1.46
2022-12-25T08:50:51.144Z,1.61
2022-12-25T08:51:51.040Z,1.50
2022-12-25T08:52:51.024Z,1.64
2022-12-25T08:53:51.048Z,1.57
2022-12-25T08:54:50.971Z,1.66
2022-12-25T08:55:50.980Z,1.49
2022-12-25T08:56:50.942Z,1.62
2022-12-25T08:57:50.943Z,2.11
2022-12-25T08:58:50.902Z,1.85
2022-12-25T08:59:50.882Z,1.54
2022-12-25T09:00:50.873Z,1.41
2022-12-25T09:01:50.965Z,1.63
2022-12-25T09:02:51.015Z,1.69
2022-12-25T09:03:50.838Z,1.83
2022-12-25T09:04:50.780Z,2.18
2022-12-25T09:05:50.789Z,2.04
2022-12-25T09:06:50.761Z,2.19
2022-12-25T09:07:50.769Z,1.69
2022-12-25T09:08:50.726Z,1.97
2022-12-25T09:09:50.693Z,1.92
2022-12-25T09:10:50.710Z,2.13
2022-12-25T09:11:50.660Z,2.56
2022-12-25T09:12:50.660Z,2.29
2022-12-25T09:13:50.617Z,2.49
2022-12-25T09:14:50.592Z,2.14
2022-12-25T09:15:50.698Z,2.30
2022-12-25T09:16:51.233Z,1.83
2022-12-25T09:17:51.231Z,2.60
2022-12-25T09:18:50.670Z,1.84
2022-12-25T09:19:51.220Z,3.14
2022-12-25T09:20:50.626Z,1.95
2022-12-25T09:21:50.604Z,2.71
2022-12-25T09:22:50.578Z,2.46
2022-12-25T09:23:50.550Z,2.08
2022-12-25T09:24:50.545Z,2.19
2022-12-25T09:25:50.515Z,2.36
2022-12-25T09:26:50.478Z,2.06
2022-12-25T09:27:50.480Z,2.02
2022-12-25T09:28:52.332Z,2.29
2022-12-25T09:29:50.483Z,2.27
2022-12-25T09:30:50.583Z,1.79
2022-12-25T09:31:50.430Z,2.72
2022-12-25T09:32:50.410Z,2.50
2022-12-25T09:33:50.437Z,2.75
2022-12-25T09:34:50.458Z,1.92
2022-12-25T09:35:50.499Z,2.46
2022-12-25T09:36:50.501Z,2.28
2022-12-25T09:37:50.547Z,1.97
2022-12-25T09:38:50.661Z,2.42
2022-12-25T09:39:50.606Z,2.19
2022-12-25T09:40:50.629Z,2.30
2022-12-25T09:41:50.667Z,2.01
2022-12-25T09:42:50.716Z,2.51
2022-12-25T09:43:50.747Z,2.05
2022-12-25T09:44:50.760Z,1.95
2022-12-25T09:45:50.833Z,1.91
2022-12-25T09:46:50.910Z,2.08
2022-12-25T09:47:50.909Z,2.49
2022-12-25T09:48:50.914Z,2.50
2022-12-25T09:49:50.957Z,2.41
2022-12-25T09:50:50.963Z,2.23
2022-12-25T09:51:51.019Z,2.44
2022-12-25T09:52:51.713Z,1.86
2022-12-25T09:53:51.016Z,2.28
2022-12-25T09:54:50.976Z,2.39
2022-12-25T09:55:50.956Z,2.43
2022-12-25T09:56:50.929Z,2.64
2022-12-25T09:57:50.931Z,2.33
2022-12-25T09:58:50.908Z,2.33
2022-12-25T09:59:50.846Z,2.15
2022-12-25T10:00:50.856Z,2.40
2022-12-25T10:01:50.987Z,2.25
2022-12-25T10:02:51.144Z,2.53
2022-12-25T10:03:51.049Z,2.13
2022-12-25T10:04:51.014Z,2.22
2022-12-25T10:05:51.033Z,2.36
2022-12-25T10:06:51.067Z,2.36
2022-12-25T10:07:51.110Z,2.57
2022-12-25T10:08:51.143Z,2.13
2022-12-25T10:09:51.164Z,1.92
2022-12-25T10:10:51.183Z,2.36
2022-12-25T10:11:51.210Z,2.49
2022-12-25T10:12:51.243Z,2.04
2022-12-25T10:13:51.292Z,2.28
2022-12-25T10:14:51.291Z,2.30
2022-12-25T10:15:51.402Z,2.38
2022-12-25T10:16:51.366Z,2.11
2022-12-25T11:01:55.452Z,2.47
2022-12-25T11:02:52.907Z,2.26
2022-12-25T11:03:52.636Z,3.15
2022-12-25T11:04:52.553Z,2.03
2022-12-25T11:05:52.522Z,2.59
2022-12-25T11:06:52.495Z,2.06
2022-12-25T11:07:52.472Z,2.13
2022-12-25T11:08:52.435Z,1.96
2022-12-25T11:09:52.399Z,2.80
2022-12-25T11:10:52.393Z,2.27
2022-12-25T11:11:52.363Z,2.39
2022-12-25T11:12:52.330Z,2.34
2022-12-25T11:13:52.270Z,2.24
2022-12-25T11:14:52.263Z,2.38
2022-12-25T11:15:52.275Z,2.81
2022-12-25T11:16:52.217Z,2.44
2022-12-25T11:17:52.149Z,2.67
2022-12-25T11:18:52.137Z,2.50
2022-12-25T11:19:52.162Z,2.57
2022-12-25T11:20:52.138Z,2.55
2022-12-25T11:21:52.023Z,2.23
2022-12-25T11:22:52.019Z,2.32
2022-12-25T11:23:51.961Z,2.75
2022-12-25T11:24:51.931Z,2.43
2022-12-25T11:25:51.977Z,2.45
2022-12-25T11:26:51.885Z,2.43
2022-12-25T11:27:53.544Z,2.78
2022-12-25T11:28:51.804Z,2.43
2022-12-25T11:29:51.785Z,2.30
2022-12-25T11:30:51.777Z,2.43
2022-12-25T11:31:51.783Z,2.36
2022-12-25T11:32:51.668Z,2.19
2022-12-25T11:33:51.652Z,2.35
2022-12-25T11:34:51.655Z,2.34
2022-12-25T11:35:51.596Z,2.05
2022-12-25T11:36:51.553Z,2.56
2022-12-25T11:37:51.507Z,2.65
2022-12-25T11:38:51.470Z,2.64
2022-12-25T11:39:51.483Z,2.87
2022-12-25T11:40:51.431Z,2.67
2022-12-25T11:41:51.428Z,2.43
2022-12-25T11:42:51.345Z,2.11
2022-12-25T11:43:51.316Z,2.59
2022-12-25T11:44:51.273Z,2.44
2022-12-25T11:45:51.242Z,2.49
2022-12-25T11:46:51.262Z,2.52
2022-12-25T11:47:51.181Z,2.52
2022-12-25T11:48:51.165Z,2.68
2022-12-25T11:49:54.869Z,2.49
2022-12-25T11:50:52.092Z,2.52
2022-12-25T11:51:51.088Z,2.94
2022-12-25T11:52:51.019Z,2.00
2022-12-25T11:53:50.999Z,2.17
2022-12-25T11:54:50.957Z,2.46
2022-12-25T11:55:50.945Z,2.56
2022-12-25T11:56:50.917Z,2.36
2022-12-25T11:57:50.879Z,2.35
2022-12-25T11:58:50.848Z,2.43
2022-12-25T11:59:50.814Z,2.30
2022-12-25T12:00:50.803Z,2.32
2022-12-25T12:01:50.860Z,2.54
2022-12-25T12:02:50.851Z,2.40
2022-12-25T12:03:50.740Z,2.28
2022-12-25T12:04:50.656Z,2.56
2022-12-25T12:05:50.629Z,2.69
2022-12-25T12:06:50.598Z,2.57
2022-12-25T12:07:50.584Z,2.14
2022-12-25T12:08:50.556Z,2.05
2022-12-25T12:09:50.510Z,2.29
2022-12-25T12:10:50.498Z,2.35
2022-12-25T12:11:50.465Z,2.50
2022-12-25T12:12:50.431Z,2.35
2022-12-25T12:13:50.427Z,2.44
2022-12-25T12:14:50.374Z,2.77
2022-12-25T12:15:50.335Z,2.74
2022-12-25T12:16:50.405Z,2.69
2022-12-25T12:17:50.258Z,2.41
2022-12-25T12:18:50.892Z,2.23
2022-12-25T12:19:50.206Z,2.18
2022-12-25T12:20:50.170Z,2.84
2022-12-25T12:21:50.135Z,2.27
2022-12-25T12:22:50.106Z,2.07
2022-12-25T14:32:46.194Z,2.04
2022-12-25T14:33:46.168Z,2.24
2022-12-25T14:34:46.157Z,2.38
2022-12-25T14:35:46.096Z,2.14
2022-12-25T14:36:46.067Z,2.01
2022-12-25T14:37:46.046Z,2.02
2022-12-25T14:38:46.011Z,2.01
2022-12-25T14:39:45.980Z,2.36
2022-12-25T14:40:45.979Z,1.73
2022-12-25T14:41:45.952Z,1.38
2022-12-25T14:42:45.994Z,1.71
2022-12-25T14:43:45.873Z,2.33
2022-12-25T14:44:45.849Z,2.15
2022-12-25T14:45:45.823Z,2.52
2022-12-25T14:46:45.815Z,1.96
2022-12-25T14:47:45.790Z,2.04
2022-12-25T14:48:45.751Z,1.79
2022-12-25T14:49:46.314Z,1.98
2022-12-25T14:50:45.706Z,2.25
2022-12-25T14:51:45.648Z,2.19
2022-12-25T14:52:45.793Z,2.00
2022-12-25T14:53:45.592Z,1.97
2022-12-25T14:54:45.555Z,2.12
2022-12-25T14:55:45.524Z,2.26
2022-12-25T14:56:45.492Z,2.16
2022-12-25T14:57:45.477Z,2.60
2022-12-25T14:58:45.451Z,1.95
2022-12-25T14:59:45.422Z,1.58
2022-12-25T15:00:45.386Z,2.39
2022-12-25T15:01:45.528Z,2.00
2022-12-25T15:02:45.705Z,2.17
2022-12-25T15:03:45.325Z,2.01
2022-12-25T15:04:45.260Z,1.95
2022-12-25T15:05:45.228Z,2.32
2022-12-25T15:06:45.300Z,1.99
2022-12-25T15:07:45.167Z,2.00
2022-12-25T15:08:45.165Z,2.33
2022-12-25T15:09:45.137Z,2.23
2022-12-25T15:11:02.473Z,2.13
2022-12-25T15:11:46.106Z,2.06
2022-12-25T15:12:45.206Z,1.91
2022-12-25T15:13:45.024Z,2.09
2022-12-25T15:14:44.991Z,2.15
2022-12-25T15:15:45.002Z,1.59
2022-12-25T15:16:44.942Z,1.76
2022-12-25T15:17:44.913Z,2.20
2022-12-25T15:18:44.902Z,1.66
2022-12-25T15:19:44.835Z,2.08
2022-12-25T15:20:44.822Z,1.78
2022-12-25T15:21:44.813Z,1.98
2022-12-25T15:23:17.723Z,2.10
2022-12-25T15:23:45.733Z,1.96
2022-12-25T15:24:44.706Z,1.68
2022-12-25T15:25:44.709Z,1.60
2022-12-25T15:26:44.647Z,2.23
2022-12-25T15:27:44.618Z,1.80
2022-12-25T15:28:44.603Z,2.06
2022-12-25T15:30:09.384Z,2.00
2022-12-25T15:30:45.614Z,2.02
2022-12-25T15:31:44.489Z,1.80
2022-12-25T15:32:44.523Z,1.91
2022-12-25T15:33:44.584Z,1.66
2022-12-25T15:34:44.401Z,2.21
2022-12-25T15:35:44.510Z,2.02
2022-12-25T15:36:44.335Z,1.73
2022-12-25T15:37:44.299Z,2.32
2022-12-25T15:38:44.280Z,2.24
2022-12-25T15:39:44.252Z,2.19
2022-12-25T15:40:44.243Z,2.23
2022-12-25T15:41:44.196Z,2.28
2022-12-25T15:42:44.954Z,1.86
2022-12-25T15:43:44.176Z,2.00
2022-12-25T15:44:44.137Z,1.54
2022-12-25T15:45:44.088Z,1.98
2022-12-25T15:46:44.167Z,1.82
2022-12-25T15:47:44.015Z,2.03
2022-12-25T15:48:44.002Z,2.05
2022-12-25T15:49:43.985Z,1.84
2022-12-25T15:50:43.932Z,2.01
2022-12-25T15:51:43.902Z,1.85
2022-12-25T15:52:44.050Z,1.74
2022-12-25T15:53:43.891Z,2.26
2022-12-25T15:54:43.820Z,1.79
2022-12-25T15:55:43.796Z,2.00
2022-12-25T15:56:43.745Z,1.95
2022-12-25T15:57:43.711Z,2.36
2022-12-25T15:58:43.739Z,1.82
2022-12-25T15:59:43.641Z,2.11
2022-12-25T16:00:43.597Z,1.96
2022-12-25T16:01:43.662Z,1.77
2022-12-25T16:02:43.810Z,1.70
2022-12-25T16:03:43.563Z,1.66
2022-12-25T16:04:43.470Z,1.70
2022-12-25T16:05:43.421Z,2.09
2022-12-25T16:06:43.409Z,2.18
2022-12-25T16:07:43.385Z,1.78
2022-12-25T16:08:43.352Z,1.90
2022-12-25T16:09:43.365Z,1.85
2022-12-25T16:10:43.247Z,2.42
2022-12-25T16:11:43.218Z,1.51
2022-12-25T16:12:43.282Z,1.82
2022-12-25T16:13:43.867Z,1.75
2022-12-25T16:14:43.119Z,2.18
2022-12-25T16:15:43.101Z,1.92
2022-12-25T16:16:43.055Z,2.13
2022-12-25T16:17:43.011Z,1.64
2022-12-25T16:18:47.345Z,1.86
2022-12-25T16:19:42.951Z,1.62
2022-12-25T16:20:42.925Z,2.39
2022-12-25T16:21:42.949Z,1.97
2022-12-25T16:22:42.869Z,1.42
2022-12-25T16:23:42.845Z,2.46
2022-12-25T16:24:42.795Z,1.97
2022-12-25T16:25:42.766Z,1.98
2022-12-25T16:26:42.725Z,1.87
2022-12-25T16:27:42.691Z,1.97
2022-12-25T16:28:42.686Z,1.89
2022-12-25T16:29:42.674Z,1.78
2022-12-25T16:30:42.620Z,2.13
2022-12-25T16:31:42.652Z,1.69
2022-12-25T16:32:42.616Z,1.79
2022-12-25T16:33:42.524Z,1.62
2022-12-25T16:34:42.508Z,1.91
2022-12-25T16:35:42.505Z,3.13
2022-12-25T16:36:42.441Z,1.73
2022-12-25T16:37:42.430Z,1.67
2022-12-25T16:38:42.394Z,2.15
2022-12-25T16:39:42.369Z,1.72
2022-12-25T16:40:42.334Z,1.55
2022-12-25T16:41:42.333Z,1.55
2022-12-25T16:42:42.283Z,1.91
2022-12-25T16:43:42.275Z,1.78
2022-12-25T16:44:42.257Z,1.52
2022-12-25T16:45:42.206Z,1.77
2022-12-25T16:46:42.283Z,1.55
2022-12-25T16:47:42.168Z,1.80
2022-12-25T16:48:42.142Z,1.88
2022-12-25T16:49:42.120Z,1.62
2022-12-25T16:50:42.102Z,1.50
2022-12-25T16:51:42.079Z,1.93
2022-12-25T16:52:42.137Z,1.66
2022-12-25T16:53:42.033Z,1.51
2022-12-25T16:54:42.003Z,1.68
2022-12-25T16:55:41.969Z,1.80
2022-12-25T16:56:41.955Z,1.96
2022-12-25T16:57:41.941Z,1.51
2022-12-25T16:58:41.924Z,1.51
2022-12-25T16:59:41.913Z,1.77
2022-12-25T17:00:47.329Z,1.56
2022-12-25T17:01:41.944Z,1.51
2022-12-25T17:02:42.134Z,1.57
2022-12-25T17:03:41.840Z,1.55
2022-12-25T17:04:41.805Z,1.83
2022-12-25T17:05:41.749Z,2.22
2022-12-25T17:06:41.730Z,1.94
2022-12-25T17:07:41.731Z,1.68
2022-12-25T17:08:41.687Z,1.62
2022-12-25T17:09:44.316Z,1.76
2022-12-25T17:10:41.636Z,1.47
2022-12-25T17:11:41.652Z,2.06
2022-12-25T17:12:41.567Z,1.68
2022-12-25T17:13:41.561Z,1.40
2022-12-25T17:14:41.501Z,1.81
2022-12-25T17:15:45.269Z,1.86
2022-12-25T17:16:42.580Z,1.60
2022-12-25T17:17:41.450Z,1.59
2022-12-25T17:18:41.434Z,1.47
2022-12-25T17:19:41.405Z,1.65
2022-12-25T17:20:41.393Z,1.94
2022-12-25T17:21:41.357Z,1.34
2022-12-25T17:22:41.338Z,1.40
2022-12-25T17:23:41.276Z,1.75
2022-12-25T17:24:41.244Z,1.55
2022-12-25T17:25:41.245Z,1.80
2022-12-25T17:26:41.176Z,1.61
2022-12-25T17:27:41.138Z,1.50
2022-12-25T17:28:41.110Z,1.71
2022-12-25T17:29:41.138Z,1.88
2022-12-25T17:30:41.055Z,1.93
2022-12-25T17:31:41.054Z,1.75
2022-12-25T17:32:40.993Z,1.58
2022-12-25T17:33:40.971Z,1.92
2022-12-25T17:34:40.974Z,1.54
2022-12-25T17:35:40.915Z,1.88
2022-12-25T17:36:40.869Z,1.73
2022-12-25T17:37:40.834Z,1.56
2022-12-25T17:38:40.793Z,1.36
2022-12-25T17:39:40.822Z,1.50
2022-12-25T17:40:40.760Z,1.42
2022-12-25T17:41:40.729Z,1.37
2022-12-25T17:42:40.699Z,1.69
2022-12-25T17:43:40.659Z,1.72
2022-12-25T17:44:40.642Z,1.18
2022-12-25T17:45:40.611Z,1.35
2022-12-25T17:46:40.582Z,1.19
2022-12-25T17:47:40.553Z,1.61
2022-12-25T17:48:40.560Z,1.79
2022-12-25T17:49:40.482Z,2.06
2022-12-25T17:50:41.556Z,1.65
2022-12-25T17:51:40.414Z,1.39
2022-12-25T17:52:40.378Z,1.14
2022-12-25T17:53:40.380Z,1.82
2022-12-25T17:54:40.339Z,1.73
2022-12-25T17:55:40.314Z,1.81
2022-12-25T17:56:40.272Z,1.08
2022-12-25T17:57:41.427Z,1.57
2022-12-25T17:58:40.226Z,1.45
2022-12-25T17:59:40.156Z,1.63
2022-12-25T18:00:40.211Z,1.67
2022-12-25T18:01:40.375Z,1.73
2022-12-25T18:09:40.373Z,1.76
2022-12-25T22:44:32.108Z,1.45
2022-12-25T23:16:31.254Z,1.15
2022-12-25T23:21:31.057Z,1.17
2022-12-25T23:22:31.043Z,1.10
2022-12-25T23:23:31.016Z,1.09
2022-12-25T23:24:31.022Z,1.30
2022-12-25T23:25:30.979Z,1.11
2022-12-25T23:26:30.966Z,1.23
2022-12-25T23:27:30.929Z,1.12
2022-12-25T23:28:30.885Z,1.44
2022-12-25T23:29:30.888Z,1.53
2022-12-25T23:30:30.853Z,1.25
2022-12-25T23:31:30.931Z,1.41
2022-12-25T23:32:30.792Z,1.21
2022-12-25T23:33:30.763Z,1.06
2022-12-25T23:34:30.742Z,1.38
2022-12-25T23:35:30.710Z,1.47
2022-12-25T23:36:30.720Z,1.27
2022-12-25T23:37:31.063Z,0.94
2022-12-25T23:38:30.622Z,1.40
2022-12-25T23:39:30.589Z,1.06
2022-12-25T23:40:30.557Z,1.09
2022-12-25T23:41:30.534Z,1.26
2022-12-25T23:42:30.505Z,1.08
2022-12-25T23:43:30.476Z,0.90
2022-12-25T23:44:30.467Z,0.99
2022-12-25T23:45:30.428Z,1.68
2022-12-25T23:46:30.446Z,1.20
2022-12-25T23:47:30.368Z,1.24
2022-12-25T23:48:30.383Z,1.42
2022-12-25T23:49:30.349Z,1.44
2022-12-25T23:50:30.316Z,1.06
2022-12-25T23:51:30.273Z,0.98
2022-12-25T23:52:30.279Z,1.40
2022-12-25T23:53:30.218Z,0.92
2022-12-25T23:54:30.191Z,1.31
2022-12-25T23:55:30.192Z,1.03
2022-12-25T23:56:30.152Z,1.07
2022-12-25T23:57:30.123Z,0.67
2022-12-25T23:58:30.125Z,1.04
